Time;durP1;ratioP1;P1;durP2;ratioP2;P2;SDS_P1;SDS_P2;PMS_P1;PMS_P2;Temp;Humidity;BMP_temperature;BMP_pressure;BME280_temperature;BME280_humidity;BME280_pressure;Samples;Min_cycle;Max_cycle;Signal;HPM_P1;HPM_P2
2022/05/07 00:02:04;;;;;;;;;;;;;;;11.29;100.00;102296.50;2611759;36;19955;-55
2022/05/07 00:04:32;;;;;;;;;;;;;;;11.31;100.00;102295.44;2612655;31;19954;-56
2022/05/07 00:07:03;;;;;;;;;;;;;;;11.30;100.00;102295.53;2612008;36;19953;-56
2022/05/07 00:09:31;;;;;;;;;;;;;;;11.31;100.00;102289.19;2612562;36;20026;-56
2022/05/07 00:11:59;;;;;;;;;;;;;;;11.34;100.00;102283.56;2612188;36;19951;-56
2022/05/07 00:14:27;;;;;;;;;;;;;;;11.46;100.00;102280.03;2611835;36;20053;-59
2022/05/07 00:19:36;;;;;;;;;;;;;;;11.56;100.00;102278.41;2612161;36;19946;-56
2022/05/07 00:22:06;;;;;;;;;;;;;;;11.55;100.00;102270.44;2612089;36;20066;-58
2022/05/07 00:24:34;;;;;;;;;;;;;;;11.55;100.00;102271.28;2612392;36;19980;-56
2022/05/07 00:27:02;;;;;;;;;;;;;;;11.47;100.00;102267.38;2612976;36;20057;-54
2022/05/07 00:29:30;;;;;;;;;;;;;;;11.50;100.00;102265.34;2612793;31;20037;-55
2022/05/07 00:31:58;;;;;;;;;;;;;;;11.48;100.00;102261.88;2612475;36;20045;-54
2022/05/07 00:34:26;;;;;;;;;;;;;;;11.46;100.00;102250.34;2611836;36;19950;-55
2022/05/07 00:36:54;;;;;;;;;;;;;;;11.43;100.00;102250.56;2612634;36;20412;-59
2022/05/07 00:39:25;;;;;;;;;;;;;;;11.64;100.00;102252.72;2611917;36;20435;-56
2022/05/07 00:41:53;;;;;;;;;;;;;;;11.58;100.00;102244.09;2612232;36;19998;-55
2022/05/07 00:44:22;;;;;;;;;;;;;;;11.61;100.00;102247.56;2611892;36;20057;-56
2022/05/07 00:46:51;;;;;;;;;;;;;;;11.71;100.00;102240.53;2612773;36;19953;-54
2022/05/07 00:49:20;;;;;;;;;;;;;;;11.75;100.00;102236.66;2612656;36;20041;-56
2022/05/07 00:51:46;;;;;;;;;;;;;;;11.48;100.00;102242.16;2611437;36;20094;-56
2022/05/07 00:54:14;;;;;;;;;;;;;;;11.46;100.00;102244.13;2611869;36;20772;-56
2022/05/07 00:56:44;;;;;;;;;;;;;;;11.43;100.00;102249.72;2612067;31;20109;-55
2022/05/07 00:59:12;;;;;;;;;;;;;;;11.43;100.00;102253.28;2612955;36;20509;-54
2022/05/07 01:01:40;;;;;;;;;;;;;;;11.36;100.00;102249.28;2612558;36;20395;-53
2022/05/07 01:04:08;;;;;;;;;;;;;;;11.40;100.00;102250.78;2611746;36;19946;-56
2022/05/07 01:06:36;;;;;;;;;;;;;;;11.46;100.00;102250.34;2611926;36;19958;-56
2022/05/07 01:09:05;;;;;;;;;;;;;;;11.45;100.00;102245.06;2611119;36;19957;-56
2022/05/07 01:11:33;;;;;;;;;;;;;;;11.36;100.00;102244.75;2611926;36;20049;-58
2022/05/07 01:14:04;;;;;;;;;;;;;;;11.34;100.00;102240.44;2611995;36;20525;-54
2022/05/07 01:16:32;;;;;;;;;;;;;;;11.33;100.00;102246.81;2612220;36;20531;-56
2022/05/07 01:19:00;;;;;;;;;;;;;;;11.37;100.00;102246.47;2612675;31;20537;-57
2022/05/07 01:21:30;;;;;;;;;;;;;;;11.37;100.00;102246.47;2612576;36;20041;-55
2022/05/07 01:23:59;;;;;;;;;;;;;;;11.32;100.00;102243.25;2611906;36;20479;-57
2022/05/07 01:26:27;;;;;;;;;;;;;;;11.38;100.00;102252.72;2613042;36;19946;-56
2022/05/07 01:29:00;;;;;;;;;;;;;;;11.47;100.00;102241.31;2612421;36;20411;-57
2022/05/07 01:31:28;;;;;;;;;;;;;;;11.44;100.00;102236.13;2612729;36;19950;-57
2022/05/07 01:33:56;;;;;;;;;;;;;;;11.47;100.00;102235.91;2613080;36;20018;-56
2022/05/07 01:36:24;;;;;;;;;;;;;;;11.34;100.00;102235.06;2612619;36;19973;-57
2022/05/07 01:38:55;;;;;;;;;;;;;;;11.30;100.00;102231.69;2612531;36;20069;-53
2022/05/07 01:41:23;;;;;;;;;;;;;;;11.34;100.00;102235.06;2612578;36;20034;-55
2022/05/07 01:43:52;;;;;;;;;;;;;;;11.42;100.00;102227.28;2613202;36;20097;-56
2022/05/07 01:49:00;;;;;;;;;;;;;;;11.39;100.00;102227.50;2614675;36;19938;-57
2022/05/07 01:51:32;;;;;;;;;;;;;;;11.46;100.00;102222.56;2614167;47;20308;-55
2022/05/07 01:54:02;;;;;;;;;;;;;;;11.47;100.00;102218.84;2614213;36;20367;-56
2022/05/07 01:56:30;;;;;;;;;;;;;;;11.55;100.00;102222.75;2613322;36;20045;-56
2022/05/07 01:58:58;;;;;;;;;;;;;;;11.57;100.00;102210.03;2613604;36;20086;-56
2022/05/07 02:01:26;;;;;;;;;;;;;;;11.55;100.00;102206.56;2614039;36;19973;-56
2022/05/07 02:03:54;;;;;;;;;;;;;;;11.73;100.00;102215.19;2613369;36;20470;-57
2022/05/07 02:06:22;;;;;;;;;;;;;;;11.66;100.00;102207.63;2613555;31;20034;-57
2022/05/07 02:08:50;;;;;;;;;;;;;;;11.63;100.00;102213.25;2612974;36;20034;-56
2022/05/07 02:11:21;;;;;;;;;;;;;;;11.63;100.00;102203.34;2613281;36;20049;-59
2022/05/07 02:13:49;;;;;;;;;;;;;;;11.55;100.00;102201.16;2613290;36;20046;-56
2022/05/07 02:16:17;;;;;;;;;;;;;;;11.68;100.00;102200.31;2613556;31;20082;-56
2022/05/07 02:18:45;;;;;;;;;;;;;;;11.74;100.00;102202.56;2613381;36;20077;-57
2022/05/07 02:21:13;;;;;;;;;;;;;;;11.83;100.00;102209.13;2613038;36;20097;-59
2022/05/07 02:23:41;;;;;;;;;;;;;;;11.88;100.00;102217.72;2613747;36;20474;-59
2022/05/07 02:26:09;;;;;;;;;;;;;;;11.95;100.00;102207.41;2613642;36;20446;-57
2022/05/07 02:28:39;;;;;;;;;;;;;;;12.06;100.00;102210.19;2613093;36;20124;-56
2022/05/07 02:31:07;;;;;;;;;;;;;;;12.07;100.00;102201.97;2613648;36;20294;-55
2022/05/07 02:33:35;;;;;;;;;;;;;;;12.05;100.00;102198.50;2613334;36;20041;-56
2022/05/07 02:36:03;;;;;;;;;;;;;;;12.02;100.00;102197.88;2611780;36;20042;-55
2022/05/07 02:38:31;;;;;;;;;;;;;;;12.11;100.00;102199.91;2613478;36;19950;-58
2022/05/07 02:43:42;;;;;;;;;;;;;;;12.08;100.00;102197.44;2613546;36;19997;-55
2022/05/07 02:46:11;;;;;;;;;;;;;;;12.02;100.00;102195.19;2613427;36;19947;-55
2022/05/07 02:48:39;;;;;;;;;;;;;;;12.03;100.00;102199.63;2613547;36;20350;-55
2022/05/07 02:51:07;;;;;;;;;;;;;;;12.01;100.00;102196.16;2613672;36;20038;-59
2022/05/07 02:53:35;;;;;;;;;;;;;;;12.01;100.00;102202.41;2614320;36;20101;-56
2022/05/07 02:56:03;;;;;;;;;;;;;;;11.97;100.00;102202.75;2613425;31;20483;-52
2022/05/07 02:58:31;;;;;;;;;;;;;;;11.97;100.00;102200.03;2613397;36;19982;-55
2022/05/07 03:01:02;;;;;;;;;;;;;;;11.96;100.00;102192.94;2614116;36;20093;-55
2022/05/07 03:03:30;;;;;;;;;;;;;;;11.95;100.00;102193.91;2612946;36;20518;-57
2022/05/07 03:05:59;;;;;;;;;;;;;;;11.93;100.00;102194.03;2613857;36;20065;-56
2022/05/07 03:08:28;;;;;;;;;;;;;;;11.96;100.00;102203.72;2612696;36;20428;-57
2022/05/07 03:10:56;;;;;;;;;;;;;;;11.99;100.00;102198.13;2612627;36;20065;-56
2022/05/07 03:13:23;;;;;;;;;;;;;;;12.01;100.00;102197.00;2611343;36;19972;-56
2022/05/07 03:15:52;;;;;;;;;;;;;;;11.96;100.00;102192.94;2613321;36;20058;-56
2022/05/07 03:18:23;;;;;;;;;;;;;;;11.96;100.00;102204.59;2612500;36;19950;-56
2022/05/07 03:20:51;;;;;;;;;;;;;;;11.98;100.00;102196.38;2614221;31;20347;-56
2022/05/07 03:23:19;;;;;;;;;;;;;;;12.10;100.00;102203.56;2613241;36;19962;-56
2022/05/07 03:25:47;;;;;;;;;;;;;;;12.29;100.00;102199.50;2612963;36;20074;-53
2022/05/07 03:28:15;;;;;;;;;;;;;;;12.36;100.00;102195.38;2613103;36;20365;-58
2022/05/07 03:30:43;;;;;;;;;;;;;;;12.19;100.00;102193.91;2613466;36;20435;-56
2022/05/07 03:33:12;;;;;;;;;;;;;;;12.25;100.00;102199.75;2613366;31;20447;-54
2022/05/07 03:35:43;;;;;;;;;;;;;;;12.23;100.00;102190.03;2613114;36;19958;-56
2022/05/07 03:38:11;;;;;;;;;;;;;;;12.19;100.00;102199.31;2611673;31;19951;-59
2022/05/07 03:40:39;;;;;;;;;;;;;;;12.14;100.00;102199.66;2612428;36;20436;-56
2022/05/07 03:43:08;;;;;;;;;;;;;;;12.14;100.00;102199.66;2612883;36;20065;-55
2022/05/07 03:45:36;;;;;;;;;;;;;;;12.13;100.00;102199.78;2613244;36;19946;-54
2022/05/07 03:48:04;;;;;;;;;;;;;;;12.12;100.00;102198.94;2612686;36;20065;-53
2022/05/07 03:50:32;;;;;;;;;;;;;;;12.14;100.00;102204.22;2613390;36;20034;-53
2022/05/07 03:55:44;;;;;;;;;;;;;;;12.27;100.00;102197.78;2630206;36;19973;-55
2022/05/07 03:58:15;;;;;;;;;;;;;;;12.30;100.00;102206.66;2612823;36;19954;-56
2022/05/07 04:00:43;;;;;;;;;;;;;;;12.30;100.00;102206.66;2613557;36;19951;-53
2022/05/07 04:03:12;;;;;;;;;;;;;;;12.26;100.00;102214.97;2613078;36;20065;-57
2022/05/07 04:05:40;;;;;;;;;;;;;;;12.33;100.00;102201.88;2613510;31;20412;-58
2022/05/07 04:08:11;;;;;;;;;;;;;;;12.38;100.00;102204.22;2612652;36;20046;-56
2022/05/07 04:10:39;;;;;;;;;;;;;;;12.36;100.00;102207.03;2612702;36;20030;-56
2022/05/07 04:13:08;;;;;;;;;;;;;;;12.38;100.00;102209.63;2613413;36;19954;-54
2022/05/07 04:15:39;;;;;;;;;;;;;;;12.41;100.00;102210.25;2614103;36;19969;-55
2022/05/07 04:18:07;;;;;;;;;;;;;;;12.57;100.00;102201.00;2613627;36;20335;-56
2022/05/07 04:20:35;;;;;;;;;;;;;;;12.57;100.00;102204.56;2613114;31;20054;-55
2022/05/07 04:23:04;;;;;;;;;;;;;;;12.58;100.00;102210.81;2613088;36;19981;-56
2022/05/07 04:25:34;;;;;;;;;;;;;;;12.57;100.00;102212.69;2612728;36;20058;-56
2022/05/07 04:28:02;;;;;;;;;;;;;;;12.64;100.00;102217.59;2612646;36;20061;-56
2022/05/07 04:30:30;;;;;;;;;;;;;;;12.73;100.00;102214.19;2613123;31;19947;-55
2022/05/07 04:32:58;;;;;;;;;;;;;;;12.80;100.00;102224.41;2613288;31;20543;-56
2022/05/07 04:35:27;;;;;;;;;;;;;;;12.76;100.00;102220.25;2612947;36;19946;-54
2022/05/07 04:37:55;;;;;;;;;;;;;;;12.85;100.00;102223.19;2612742;36;20065;-55
2022/05/07 04:40:22;;;;;;;;;;;;;;;12.81;100.00;102228.00;2612631;36;20061;-55
2022/05/07 04:42:53;;;;;;;;;;;;;;;12.79;100.00;102228.13;2612033;31;19985;-56
2022/05/07 04:45:21;;;;;;;;;;;;;;;12.80;100.00;102228.97;2613391;36;19950;-55
2022/05/07 04:47:49;;;;;;;;;;;;;;;12.82;100.00;102229.69;2613054;36;19950;-55
2022/05/07 04:50:17;;;;;;;;;;;;;;;12.70;100.00;102225.25;2612689;31;20543;-52
2022/05/07 04:52:45;;;;;;;;;;;;;;;12.72;100.00;102228.66;2613418;36;20451;-57
2022/05/07 04:55:13;;;;;;;;;;;;;;;12.71;100.00;102229.69;2613317;36;20348;-53
2022/05/07 04:57:41;;;;;;;;;;;;;;;12.70;100.00;102227.94;2612998;36;20042;-55
2022/05/07 05:00:14;;;;;;;;;;;;;;;12.70;100.00;102231.50;2613031;36;20041;-55
2022/05/07 05:02:43;;;;;;;;;;;;;;;12.77;100.00;102232.75;2613870;36;19958;-52
2022/05/07 05:05:11;;;;;;;;;;;;;;;12.80;100.00;102231.66;2613358;36;19954;-53
2022/05/07 05:07:39;;;;;;;;;;;;;;;12.86;100.00;102225.78;2613154;36;20042;-51
2022/05/07 05:10:07;;;;;;;;;;;;;;;12.92;100.00;102227.16;2613170;36;20511;-56
2022/05/07 05:12:36;;;;;;;;;;;;;;;12.94;100.00;102236.00;2613893;36;20038;-56
2022/05/07 05:15:04;;;;;;;;;;;;;;;12.88;100.00;102245.47;2614051;36;19982;-52
2022/05/07 05:17:37;;;;;;;;;;;;;;;13.01;100.00;102241.81;2613829;36;19946;-53
2022/05/07 05:20:06;;;;;;;;;;;;;;;13.03;100.00;102246.13;2613078;31;19946;-54
2022/05/07 05:22:34;;;;;;;;;;;;;;;13.27;100.00;102246.06;2614227;36;19947;-56
2022/05/07 05:25:05;;;;;;;;;;;;;;;13.33;100.00;102239.31;2613431;36;20057;-54
2022/05/07 05:27:33;;;;;;;;;;;;;;;13.33;100.00;102247.41;2614479;36;20417;-51
2022/05/07 05:30:01;;;;;;;;;;;;;;;13.08;100.00;102249.31;2613704;31;20038;-55
2022/05/07 05:32:29;;;;;;;;;;;;;;;13.21;100.00;102256.50;2611143;36;20076;-54
2022/05/07 05:35:00;;;;;;;;;;;;;;;13.30;100.00;102251.22;2612213;36;19953;-52
2022/05/07 05:37:30;;;;;;;;;;;;;;;13.44;100.00;102255.59;2613027;36;20588;-52
2022/05/07 05:39:58;;;;;;;;;;;;;;;13.47;100.00;102251.75;2611851;36;20088;-56
2022/05/07 05:42:26;;;;;;;;;;;;;;;13.43;100.00;102253.00;2612230;31;20041;-54
2022/05/07 05:44:54;;;;;;;;;;;;;;;13.30;100.00;102245.81;2612976;36;19954;-55
2022/05/07 05:47:22;;;;;;;;;;;;;;;13.46;100.00;102255.47;2613267;36;20074;-57
2022/05/07 05:49:50;;;;;;;;;;;;;;;13.40;100.00;102256.81;2612898;36;20041;-57
2022/05/07 05:52:21;;;;;;;;;;;;;;;13.45;100.00;102259.16;2613226;36;20065;-57
2022/05/07 05:54:49;;;;;;;;;;;;;;;13.54;100.00;102269.22;2613727;36;20049;-55
2022/05/07 05:57:17;;;;;;;;;;;;;;;13.58;100.00;102265.31;2613687;36;20084;-59
2022/05/07 05:59:45;;;;;;;;;;;;;;;13.59;100.00;102261.63;2612440;36;20029;-56
2022/05/07 06:02:15;;;;;;;;;;;;;;;13.46;100.00;102258.16;2612271;36;20432;-56
2022/05/07 06:04:43;;;;;;;;;;;;;;;13.39;100.00;102262.34;2613191;36;20403;-55
2022/05/07 06:07:11;;;;;;;;;;;;;;;13.59;100.00;102269.75;2613810;36;20433;-54
2022/05/07 06:09:42;;;;;;;;;;;;;;;13.63;100.00;102270.34;2613757;31;20005;-57
2022/05/07 06:12:10;;;;;;;;;;;;;;;13.82;100.00;102267.94;2613150;36;19958;-58
2022/05/07 06:14:39;;;;;;;;;;;;;;;13.78;100.00;102271.84;2613287;36;20030;-55
2022/05/07 06:17:07;;;;;;;;;;;;;;;13.72;100.00;102275.06;2612793;36;20428;-55
2022/05/07 06:19:35;;;;;;;;;;;;;;;13.54;100.00;102279.19;2613641;36;20045;-52
2022/05/07 06:22:03;;;;;;;;;;;;;;;13.59;100.00;102279.69;2613212;36;20085;-54
2022/05/07 06:29:56;;;;;;;;;;;;;;;14.09;100.00;102287.44;2613519;36;20025;-55
2022/05/07 06:32:24;;;;;;;;;;;;;;;14.23;100.00;102287.19;2612898;31;20487;-56
2022/05/07 06:34:53;;;;;;;;;;;;;;;14.31;100.00;102290.16;2613189;36;20080;-55
2022/05/07 06:37:21;;;;;;;;;;;;;;;14.43;100.00;102290.09;2614149;36;20058;-59
2022/05/07 06:39:52;;;;;;;;;;;;;;;14.37;100.00;102286.09;2613492;54;19973;-55
2022/05/07 06:42:22;;;;;;;;;;;;;;;14.43;100.00;102281.97;2612895;36;20062;-54
2022/05/07 06:44:50;;;;;;;;;;;;;;;14.36;100.00;102282.50;2613814;36;20061;-55
2022/05/07 06:47:18;;;;;;;;;;;;;;;14.49;100.00;102290.47;2613787;36;20077;-56
2022/05/07 06:49:47;;;;;;;;;;;;;;;14.57;100.00;102287.13;2614070;31;20502;-56
2022/05/07 06:52:15;;;;;;;;;;;;;;;14.43;100.00;102287.41;2613015;36;19968;-58
2022/05/07 06:54:43;;;;;;;;;;;;;;;14.66;100.00;102288.25;2613673;31;19973;-56
2022/05/07 06:57:11;;;;;;;;;;;;;;;14.81;100.00;102291.50;2612855;36;19946;-53
2022/05/07 06:59:43;;;;;;;;;;;;;;;15.27;100.00;102275.88;2614069;36;19962;-57
2022/05/07 07:02:11;;;;;;;;;;;;;;;15.55;100.00;102298.81;2612702;31;19947;-57
2022/05/07 07:04:39;;;;;;;;;;;;;;;15.31;100.00;102289.09;2613224;36;20226;-58
2022/05/07 07:07:08;;;;;;;;;;;;;;;15.63;100.00;102285.41;2613579;36;20112;-53
2022/05/07 07:09:36;;;;;;;;;;;;;;;15.88;100.00;102294.13;2613343;36;19955;-56
2022/05/07 07:12:06;;;;;;;;;;;;;;;15.45;100.00;102290.59;2612831;36;19984;-57
2022/05/07 07:14:34;;;;;;;;;;;;;;;15.30;100.00;102295.50;2613728;36;19946;-64
2022/05/07 07:17:05;;;;;;;;;;;;;;;15.01;100.00;102287.97;2613007;31;20057;-53
2022/05/07 07:19:34;;;;;;;;;;;;;;;14.95;100.00;102293.94;2612822;36;20069;-56
2022/05/07 07:22:02;;;;;;;;;;;;;;;15.46;100.00;102292.31;2613254;31;19981;-55
2022/05/07 07:24:30;;;;;;;;;;;;;;;15.71;100.00;102296.47;2612871;36;20041;-63
2022/05/07 07:26:58;;;;;;;;;;;;;;;15.76;100.00;102298.75;2612926;31;20046;-63
2022/05/07 07:29:26;;;;;;;;;;;;;;;15.82;100.00;102302.84;2614497;31;19961;-53
2022/05/07 07:31:54;;;;;;;;;;;;;;;15.98;100.00;102302.34;2612159;36;20065;-57
2022/05/07 07:34:25;;;;;;;;;;;;;;;16.08;100.00;102290.50;2612925;31;20041;-57
2022/05/07 07:36:53;;;;;;;;;;;;;;;16.98;100.00;102294.13;2613086;36;20057;-61
2022/05/07 07:39:21;;;;;;;;;;;;;;;17.24;100.00;102289.97;2613093;36;20072;-64
2022/05/07 07:41:49;;;;;;;;;;;;;;;17.67;100.00;102296.78;2612917;36;19968;-54
2022/05/07 07:44:17;;;;;;;;;;;;;;;17.44;100.00;102296.25;2613214;36;19977;-58
2022/05/07 07:49:28;;;;;;;;;;;;;;;17.60;100.00;102299.22;2612807;36;19958;-62
2022/05/07 07:51:56;;;;;;;;;;;;;;;17.25;100.00;102302.56;2612538;36;19981;-57
2022/05/07 07:54:24;;;;;;;;;;;;;;;17.46;100.00;102303.25;2612889;36;20050;-57
2022/05/07 07:56:52;;;;;;;;;;;;;;;18.02;100.00;102306.13;2612531;36;19946;-56
2022/05/07 07:59:20;;;;;;;;;;;;;;;18.21;100.00;102307.91;2614270;36;20351;-58
2022/05/07 08:01:52;;;;;;;;;;;;;;;17.81;100.00;102307.16;2614493;36;20449;-63
2022/05/07 08:04:20;;;;;;;;;;;;;;;17.86;100.00;102306.75;2613556;31;20432;-56
2022/05/07 08:11:40;;;;;;;;;;;;;;;17.91;100.00;102304.44;2613557;36;20335;-57
2022/05/07 08:12:20;;;;;;;;;;;;;;;18.07;100.00;102309.25;2612850;36;19950;-56
2022/05/07 08:14:48;;;;;;;;;;;;;;;18.24;100.00;102299.44;2613227;36;20081;-58
2022/05/07 08:17:17;;;;;;;;;;;;;;;18.53;100.00;102304.69;2613124;36;19947;-55
2022/05/07 08:19:46;;;;;;;;;;;;;;;18.05;100.00;102311.28;2612954;31;19947;-64
2022/05/07 08:22:16;;;;;;;;;;;;;;;18.00;100.00;102305.41;2612285;36;19954;-62
2022/05/07 08:24:44;;;;;;;;;;;;;;;18.44;100.00;102305.63;2612699;31;19985;-57
2022/05/07 08:27:12;;;;;;;;;;;;;;;18.83;100.00;102308.09;2612614;36;19954;-56
2022/05/07 08:29:40;;;;;;;;;;;;;;;18.48;100.00;102304.31;2612358;36;20033;-56
2022/05/07 08:32:08;;;;;;;;;;;;;;;18.18;100.00;102316.38;2612702;36;20038;-58
2022/05/07 08:34:37;;;;;;;;;;;;;;;18.54;100.00;102300.13;2610617;36;20527;-64
2022/05/07 08:37:05;;;;;;;;;;;;;;;18.78;100.00;102304.97;2611368;36;19968;-59
2022/05/07 08:39:36;;;;;;;;;;;;;;;19.03;100.00;102305.25;2612650;36;20461;-57
2022/05/07 08:42:04;;;;;;;;;;;;;;;19.38;100.00;102308.94;2613466;36;20057;-57
2022/05/07 08:44:32;;;;;;;;;;;;;;;19.00;100.00;102316.47;2613137;36;19947;-63
2022/05/07 08:47:01;;;;;;;;;;;;;;;19.66;100.00;102319.72;2613073;36;19968;-65
2022/05/07 08:49:29;;;;;;;;;;;;;;;19.70;100.00;102313.78;2613079;36;19961;-55
2022/05/07 08:51:57;;;;;;;;;;;;;;;19.66;100.00;102312.38;2612347;36;20414;-58
2022/05/07 08:54:25;;;;;;;;;;;;;;;19.93;100.00;102314.13;2612651;36;19981;-58
2022/05/07 08:56:56;;;;;;;;;;;;;;;19.73;100.00;102320.81;2612911;31;20516;-64
2022/05/07 08:59:24;;;;;;;;;;;;;;;18.94;100.00;102317.09;2613186;36;20568;-59
2022/05/07 09:01:52;;;;;;;;;;;;;;;19.91;100.00;102320.75;2612798;36;20399;-58
2022/05/07 09:04:20;;;;;;;;;;;;;;;20.46;100.00;102303.91;2613175;36;19950;-58
2022/05/07 09:06:57;;;;;;;;;;;;;;;20.40;100.00;102314.66;2612669;36;19958;-58
2022/05/07 09:09:27;;;;;;;;;;;;;;;21.09;100.00;102309.00;2613178;36;20057;-64
2022/05/07 09:11:58;;;;;;;;;;;;;;;21.78;100.00;102314.09;2613441;36;19950;-59
2022/05/07 09:14:30;;;;;;;;;;;;;;;22.41;100.00;102315.09;2612369;36;20073;-59
2022/05/07 09:17:00;;;;;;;;;;;;;;;22.14;100.00;102308.16;2612554;36;20057;-57
2022/05/07 09:19:30;;;;;;;;;;;;;;;22.13;100.00;102318.28;2613532;31;20396;-65
2022/05/07 09:22:06;;;;;;;;;;;;;;;21.43;100.00;102317.03;2612060;36;20402;-59
2022/05/07 09:24:34;;;;;;;;;;;;;;;21.12;100.00;102322.34;2612014;36;20030;-60
2022/05/07 09:27:06;;;;;;;;;;;;;;;20.82;100.00;102316.50;2611447;36;19951;-58
2022/05/07 09:29:35;;;;;;;;;;;;;;;20.39;100.00;102319.28;2612877;36;20507;-67
2022/05/07 09:32:11;;;;;;;;;;;;;;;20.70;100.00;102313.25;2612936;36;20009;-61
2022/05/07 09:37:29;;;;;;;;;;;;;;;21.22;100.00;102323.03;2610953;36;20370;-63
2022/05/07 09:39:57;;;;;;;;;;;;;;;20.89;100.00;102320.28;2612562;36;20030;-60
2022/05/07 09:42:28;;;;;;;;;;;;;;;21.07;100.00;102322.88;2612781;36;19950;-57
2022/05/07 09:44:57;;;;;;;;;;;;;;;20.96;100.00;102318.56;2613271;31;20432;-58
2022/05/07 09:47:25;;;;;;;;;;;;;;;21.04;100.00;102327.81;2613059;36;20061;-58
2022/05/07 09:52:35;;;;;;;;;;;;;;;21.01;100.00;102323.56;2613565;36;19951;-58
2022/05/07 09:57:46;;;;;;;;;;;;;;;20.95;100.00;102336.03;2613595;36;19954;-62
2022/05/07 10:00:15;;;;;;;;;;;;;;;20.79;100.00;102336.00;2613974;36;20559;-58
2022/05/07 10:02:51;;;;;;;;;;;;;;;20.42;100.00;102339.94;2613771;36;19950;-59
2022/05/07 10:05:43;;;;;;;;;;;;;;;20.53;100.00;102342.38;2613564;36;19969;-58
2022/05/07 10:08:24;;;;;;;;;;;;;;;20.25;100.00;102348.09;2612632;36;19946;-59
2022/05/07 10:10:53;;;;;;;;;;;;;;;20.58;100.00;102342.75;2613273;36;20038;-59
2022/05/07 10:13:24;;;;;;;;;;;;;;;20.30;100.00;102342.13;2613793;36;19957;-60
2022/05/07 10:16:00;;;;;;;;;;;;;;;20.48;100.00;102340.16;2613363;36;20081;-62
2022/05/07 10:18:35;;;;;;;;;;;;;;;21.30;100.00;102338.59;2613421;31;19950;-58
2022/05/07 10:21:12;;;;;;;;;;;;;;;21.07;100.00;102338.41;2613222;36;20470;-57
2022/05/07 10:23:50;;;;;;;;;;;;;;;21.04;100.00;102336.91;2613763;36;20066;-64
2022/05/07 10:26:18;;;;;;;;;;;;;;;20.64;100.00;102338.47;2613591;36;20020;-57
2022/05/07 10:28:49;;;;;;;;;;;;;;;21.23;100.00;102337.56;2613199;36;20045;-57
2022/05/07 10:31:18;;;;;;;;;;;;;;;21.46;100.00;102337.75;2613137;36;19950;-58
2022/05/07 10:33:46;;;;;;;;;;;;;;;21.59;100.00;102335.38;2613095;36;20053;-64
2022/05/07 10:36:14;;;;;;;;;;;;;;;21.80;100.00;102328.47;2613122;36;20874;-64
2022/05/07 10:38:44;;;;;;;;;;;;;;;21.80;100.00;102328.47;2613361;36;20102;-60
2022/05/07 10:41:22;;;;;;;;;;;;;;;21.90;100.00;102328.28;2613510;36;20041;-56
2022/05/07 10:44:03;;;;;;;;;;;;;;;21.67;100.00;102329.88;2611111;36;19950;-58
2022/05/07 10:46:39;;;;;;;;;;;;;;;20.55;100.00;102326.66;2612496;36;19954;-59
2022/05/07 10:49:07;;;;;;;;;;;;;;;21.33;100.00;102330.91;2612531;31;20363;-58
2022/05/07 10:51:37;;;;;;;;;;;;;;;21.43;100.00;102327.13;2613310;36;20053;-56
2022/05/07 10:54:05;;;;;;;;;;;;;;;21.12;100.00;102327.81;2613312;36;20531;-65
2022/05/07 10:56:34;;;;;;;;;;;;;;;21.35;100.00;102331.59;2612610;36;20005;-60
2022/05/07 10:59:05;;;;;;;;;;;;;;;21.24;100.00;102323.72;2611947;36;20030;-57
2022/05/07 11:01:34;;;;;;;;;;;;;;;21.56;100.00;102321.16;2613120;36;20000;-58
2022/05/07 11:04:04;;;;;;;;;;;;;;;22.11;100.00;102325.81;2612245;36;19969;-58
2022/05/07 11:06:32;;;;;;;;;;;;;;;22.22;100.00;102321.84;2613037;36;20366;-64
2022/05/07 11:09:00;;;;;;;;;;;;;;;21.86;100.00;102325.03;2613450;36;20101;-59
2022/05/07 11:11:28;;;;;;;;;;;;;;;21.80;100.00;102323.84;2611802;36;20082;-58
2022/05/07 11:13:57;;;;;;;;;;;;;;;21.95;100.00;102329.47;2613736;36;19965;-57
2022/05/07 11:16:27;;;;;;;;;;;;;;;21.90;100.00;102323.66;2614351;31;20355;-58
2022/05/07 11:18:56;;;;;;;;;;;;;;;22.21;100.00;102325.59;2612541;36;19976;-62
2022/05/07 11:21:25;;;;;;;;;;;;;;;21.97;100.00;102324.66;2613408;36;19947;-58
2022/05/07 11:23:57;;;;;;;;;;;;;;;21.84;100.00;102324.38;2613539;36;20037;-56
2022/05/07 11:26:25;;;;;;;;;;;;;;;21.98;100.00;102315.41;2612278;31;19958;-57
2022/05/07 11:28:54;;;;;;;;;;;;;;;21.95;100.00;102321.25;2613399;36;20347;-58
2022/05/07 11:31:32;;;;;;;;;;;;;;;22.45;100.00;102326.56;2612373;36;19957;-65
2022/05/07 11:34:03;;;;;;;;;;;;;;;22.78;98.37;102320.91;2610659;31;20027;-58
2022/05/07 11:36:31;;;;;;;;;;;;;;;22.44;100.00;102319.34;2612164;36;19962;-60
2022/05/07 11:39:00;;;;;;;;;;;;;;;22.69;100.00;102322.84;2612332;36;20041;-60
2022/05/07 11:41:28;;;;;;;;;;;;;;;21.94;100.00;102325.03;2613448;31;20447;-60
2022/05/07 11:46:48;;;;;;;;;;;;;;;22.74;100.00;102315.75;2611666;31;20440;-59
2022/05/07 11:49:16;;;;;;;;;;;;;;;22.71;100.00;102310.63;2609978;31;19999;-64
2022/05/07 11:51:45;;;;;;;;;;;;;;;22.96;99.88;102317.84;2611175;36;20054;-63
2022/05/07 11:54:13;;;;;;;;;;;;;;;22.40;100.00;102306.00;2612896;36;20461;-59
2022/05/07 11:56:47;;;;;;;;;;;;;;;23.18;100.00;102316.16;2612151;31;19950;-56
2022/05/07 11:59:16;;;;;;;;;;;;;;;22.96;100.00;102323.34;2611423;36;20716;-54
2022/05/07 12:01:50;;;;;;;;;;;;;;;22.63;100.00;102327.16;2612173;31;19950;-62
2022/05/07 12:04:18;;;;;;;;;;;;;;;21.79;100.00;102324.00;2610761;36;20089;-57
2022/05/07 12:06:55;;;;;;;;;;;;;;;22.00;100.00;102317.97;2610718;36;19950;-58
2022/05/07 12:09:23;;;;;;;;;;;;;;;22.56;100.00;102320.69;2611020;36;19954;-56
2022/05/07 12:11:51;;;;;;;;;;;;;;;22.29;100.00;102322.84;2612087;36;20600;-60
2022/05/07 12:14:19;;;;;;;;;;;;;;;22.95;100.00;102322.47;2610118;36;20077;-58
2022/05/07 12:19:31;;;;;;;;;;;;;;;22.60;100.00;102324.78;2612341;36;20022;-58
2022/05/07 12:30:01;;;;;;;;;;;;;;;22.39;100.00;102328.13;2611190;36;19954;-63
2022/05/07 12:32:32;;;;;;;;;;;;;;;22.52;100.00;102325.66;2612663;36;20066;-59
2022/05/07 12:35:00;;;;;;;;;;;;;;;21.63;100.00;102328.50;2612379;36;20074;-57
2022/05/07 12:37:28;;;;;;;;;;;;;;;22.60;100.00;102324.78;2611851;36;20586;-58
2022/05/07 12:39:57;;;;;;;;;;;;;;;22.86;100.00;102335.38;2612075;36;20470;-63
2022/05/07 12:42:25;;;;;;;;;;;;;;;22.33;100.00;102335.19;2610449;31;19957;-61
2022/05/07 12:44:53;;;;;;;;;;;;;;;21.34;100.00;102346.31;2610654;36;20461;-59
2022/05/07 12:47:21;;;;;;;;;;;;;;;21.86;100.00;102333.25;2611826;36;20582;-57
2022/05/07 12:49:52;;;;;;;;;;;;;;;22.38;100.00;102337.41;2611411;36;19946;-59
2022/05/07 12:52:22;;;;;;;;;;;;;;;22.64;100.00;102337.06;2611455;31;20310;-64
2022/05/07 12:54:50;;;;;;;;;;;;;;;22.39;100.00;102345.47;2611511;36;19976;-59
2022/05/07 12:57:18;;;;;;;;;;;;;;;22.14;100.00;102341.06;2613430;36;20535;-56
2022/05/07 12:59:46;;;;;;;;;;;;;;;21.62;100.00;102345.97;2612551;36;20046;-57
2022/05/07 13:02:15;;;;;;;;;;;;;;;21.76;100.00;102338.06;2612187;36;19973;-58
2022/05/07 13:04:43;;;;;;;;;;;;;;;22.44;100.00;102347.66;2613204;36;20383;-63
2022/05/07 13:07:13;;;;;;;;;;;;;;;21.72;100.00;102344.97;2612117;36;20050;-63
2022/05/07 13:09:41;;;;;;;;;;;;;;;22.39;100.00;102342.72;2611827;31;19951;-55
2022/05/07 13:12:13;;;;;;;;;;;;;;;22.51;100.00;102339.56;2611602;36;20427;-56
2022/05/07 13:14:41;;;;;;;;;;;;;;;21.35;100.00;102341.69;2604549;36;21703;-57
2022/05/07 13:17:09;;;;;;;;;;;;;;;22.24;100.00;102336.22;2610836;36;19947;-58
2022/05/07 13:19:37;;;;;;;;;;;;;;;22.65;100.00;102338.78;2611097;31;21044;-58
2022/05/07 13:22:05;;;;;;;;;;;;;;;22.76;100.00;102326.53;2612594;36;20475;-53